sensor_id;sensor_type;location;lat;lon;timestamp;P1;durP1;ratioP1;P2;durP2;ratioP2
13981;SDS011;7065;50.880;5.502;2022-12-18T00:00:31;67.57;;;34.50;;
13981;SDS011;7065;50.880;5.502;2022-12-18T00:02:57;74.50;;;38.17;;
13981;SDS011;7065;50.880;5.502;2022-12-18T00:05:23;65.50;;;34.90;;
13981;SDS011;7065;50.880;5.502;2022-12-18T00:07:49;71.68;;;37.90;;
13981;SDS011;7065;50.880;5.502;2022-12-18T00:10:14;72.05;;;37.85;;
13981;SDS011;7065;50.880;5.502;2022-12-18T00:12:40;71.75;;;37.33;;
13981;SDS011;7065;50.880;5.502;2022-12-18T00:15:06;80.40;;;38.17;;
13981;SDS011;7065;50.880;5.502;2022-12-18T00:17:32;76.10;;;36.15;;
13981;SDS011;7065;50.880;5.502;2022-12-18T00:19:57;64.55;;;31.88;;
13981;SDS011;7065;50.880;5.502;2022-12-18T00:22:23;65.30;;;33.78;;
13981;SDS011;7065;50.880;5.502;2022-12-18T00:24:49;71.60;;;36.17;;
13981;SDS011;7065;50.880;5.502;2022-12-18T00:27:15;69.85;;;36.03;;
13981;SDS011;7065;50.880;5.502;2022-12-18T00:29:41;73.90;;;36.75;;
13981;SDS011;7065;50.880;5.502;2022-12-18T00:32:06;65.50;;;33.72;;
13981;SDS011;7065;50.880;5.502;2022-12-18T00:34:32;71.88;;;35.40;;
13981;SDS011;7065;50.880;5.502;2022-12-18T00:36:58;68.15;;;36.50;;
13981;SDS011;7065;50.880;5.502;2022-12-18T00:39:23;71.07;;;36.55;;
13981;SDS011;7065;50.880;5.502;2022-12-18T00:41:49;67.90;;;36.60;;
13981;SDS011;7065;50.880;5.502;2022-12-18T00:44:33;67.30;;;35.35;;
13981;SDS011;7065;50.880;5.502;2022-12-18T00:46:59;72.80;;;35.35;;
13981;SDS011;7065;50.880;5.502;2022-12-18T00:49:24;72.88;;;36.85;;
13981;SDS011;7065;50.880;5.502;2022-12-18T00:51:50;71.70;;;36.30;;
13981;SDS011;7065;50.880;5.502;2022-12-18T00:54:16;67.75;;;34.20;;
13981;SDS011;7065;50.880;5.502;2022-12-18T00:56:42;64.68;;;34.03;;
13981;SDS011;7065;50.880;5.502;2022-12-18T00:59:08;65.75;;;34.28;;
13981;SDS011;7065;50.880;5.502;2022-12-18T01:01:34;68.20;;;33.60;;
13981;SDS011;7065;50.880;5.502;2022-12-18T01:04:01;74.35;;;36.30;;
13981;SDS011;7065;50.880;5.502;2022-12-18T01:06:27;68.72;;;34.35;;
13981;SDS011;7065;50.880;5.502;2022-12-18T01:08:53;62.75;;;31.23;;
13981;SDS011;7065;50.880;5.502;2022-12-18T01:11:19;65.07;;;34.47;;
13981;SDS011;7065;50.880;5.502;2022-12-18T01:13:46;64.88;;;34.03;;
13981;SDS011;7065;50.880;5.502;2022-12-18T01:16:12;65.82;;;34.22;;
13981;SDS011;7065;50.880;5.502;2022-12-18T01:18:38;62.33;;;34.22;;
13981;SDS011;7065;50.880;5.502;2022-12-18T01:21:05;58.50;;;32.50;;
13981;SDS011;7065;50.880;5.502;2022-12-18T01:23:39;64.53;;;33.72;;
13981;SDS011;7065;50.880;5.502;2022-12-18T01:26:09;63.33;;;33.20;;
13981;SDS011;7065;50.880;5.502;2022-12-18T01:28:37;62.78;;;32.97;;
13981;SDS011;7065;50.880;5.502;2022-12-18T01:31:36;66.57;;;33.78;;
13981;SDS011;7065;50.880;5.502;2022-12-18T01:33:57;61.00;;;32.70;;
13981;SDS011;7065;50.880;5.502;2022-12-18T01:36:27;57.05;;;31.25;;
13981;SDS011;7065;50.880;5.502;2022-12-18T01:38:56;66.90;;;32.38;;
13981;SDS011;7065;50.880;5.502;2022-12-18T01:41:24;60.28;;;32.40;;
13981;SDS011;7065;50.880;5.502;2022-12-18T01:47:18;59.80;;;31.95;;
13981;SDS011;7065;50.880;5.502;2022-12-18T01:52:34;63.63;;;32.67;;
13981;SDS011;7065;50.880;5.502;2022-12-18T01:55:01;60.60;;;32.55;;
13981;SDS011;7065;50.880;5.502;2022-12-18T01:57:28;58.30;;;30.80;;
13981;SDS011;7065;50.880;5.502;2022-12-18T01:59:55;58.72;;;33.83;;
13981;SDS011;7065;50.880;5.502;2022-12-18T02:02:27;64.28;;;33.90;;
13981;SDS011;7065;50.880;5.502;2022-12-18T02:04:53;63.13;;;34.08;;
13981;SDS011;7065;50.880;5.502;2022-12-18T02:13:02;57.72;;;32.38;;
13981;SDS011;7065;50.880;5.502;2022-12-18T02:15:41;58.83;;;31.42;;
13981;SDS011;7065;50.880;5.502;2022-12-18T02:18:15;59.80;;;32.58;;
13981;SDS011;7065;50.880;5.502;2022-12-18T02:21:04;63.22;;;31.98;;
13981;SDS011;7065;50.880;5.502;2022-12-18T02:23:44;60.05;;;31.77;;
13981;SDS011;7065;50.880;5.502;2022-12-18T02:28:40;62.67;;;34.72;;
13981;SDS011;7065;50.880;5.502;2022-12-18T02:31:11;60.10;;;32.05;;
13981;SDS011;7065;50.880;5.502;2022-12-18T02:33:42;60.22;;;31.45;;
13981;SDS011;7065;50.880;5.502;2022-12-18T02:36:09;56.53;;;31.25;;
13981;SDS011;7065;50.880;5.502;2022-12-18T02:38:37;55.17;;;31.92;;
13981;SDS011;7065;50.880;5.502;2022-12-18T02:41:04;56.28;;;31.52;;
13981;SDS011;7065;50.880;5.502;2022-12-18T02:43:31;61.38;;;32.63;;
13981;SDS011;7065;50.880;5.502;2022-12-18T02:45:58;58.75;;;30.08;;
13981;SDS011;7065;50.880;5.502;2022-12-18T02:48:32;48.97;;;29.58;;
13981;SDS011;7065;50.880;5.502;2022-12-18T03:06:53;50.50;;;29.35;;
13981;SDS011;7065;50.880;5.502;2022-12-18T03:09:24;51.22;;;28.67;;
13981;SDS011;7065;50.880;5.502;2022-12-18T03:12:04;56.83;;;29.20;;
13981;SDS011;7065;50.880;5.502;2022-12-18T03:17:32;49.78;;;28.50;;
13981;SDS011;7065;50.880;5.502;2022-12-18T03:20:02;53.53;;;28.35;;
13981;SDS011;7065;50.880;5.502;2022-12-18T03:22:31;52.83;;;29.00;;
13981;SDS011;7065;50.880;5.502;2022-12-18T03:25:00;48.08;;;27.80;;
13981;SDS011;7065;50.880;5.502;2022-12-18T03:27:28;48.95;;;27.50;;
13981;SDS011;7065;50.880;5.502;2022-12-18T03:30:02;55.20;;;29.13;;
13981;SDS011;7065;50.880;5.502;2022-12-18T03:32:58;53.90;;;28.23;;
13981;SDS011;7065;50.880;5.502;2022-12-18T03:35:46;52.58;;;28.13;;
13981;SDS011;7065;50.880;5.502;2022-12-18T03:38:12;51.60;;;27.98;;
13981;SDS011;7065;50.880;5.502;2022-12-18T03:46:02;51.95;;;29.23;;
13981;SDS011;7065;50.880;5.502;2022-12-18T03:48:51;54.10;;;28.40;;
13981;SDS011;7065;50.880;5.502;2022-12-18T03:51:26;51.67;;;28.08;;
13981;SDS011;7065;50.880;5.502;2022-12-18T03:54:16;53.60;;;27.58;;
13981;SDS011;7065;50.880;5.502;2022-12-18T03:56:44;51.75;;;27.48;;
13981;SDS011;7065;50.880;5.502;2022-12-18T03:59:13;49.83;;;25.83;;
13981;SDS011;7065;50.880;5.502;2022-12-18T04:01:42;44.92;;;25.75;;
13981;SDS011;7065;50.880;5.502;2022-12-18T04:04:12;45.70;;;24.83;;
13981;SDS011;7065;50.880;5.502;2022-12-18T04:06:39;48.15;;;25.50;;
13981;SDS011;7065;50.880;5.502;2022-12-18T04:09:06;49.75;;;26.33;;
13981;SDS011;7065;50.880;5.502;2022-12-18T04:11:32;45.53;;;27.13;;
13981;SDS011;7065;50.880;5.502;2022-12-18T04:13:58;46.42;;;25.05;;
13981;SDS011;7065;50.880;5.502;2022-12-18T04:16:25;46.90;;;25.52;;
13981;SDS011;7065;50.880;5.502;2022-12-18T04:18:51;45.67;;;25.60;;
13981;SDS011;7065;50.880;5.502;2022-12-18T04:21:17;46.55;;;24.60;;
13981;SDS011;7065;50.880;5.502;2022-12-18T04:23:44;48.90;;;25.90;;
13981;SDS011;7065;50.880;5.502;2022-12-18T04:26:10;45.13;;;24.77;;
13981;SDS011;7065;50.880;5.502;2022-12-18T04:28:36;50.10;;;26.77;;
13981;SDS011;7065;50.880;5.502;2022-12-18T04:31:01;48.40;;;24.80;;
13981;SDS011;7065;50.880;5.502;2022-12-18T04:33:27;46.85;;;24.92;;
13981;SDS011;7065;50.880;5.502;2022-12-18T04:35:53;39.28;;;23.33;;
13981;SDS011;7065;50.880;5.502;2022-12-18T04:38:19;41.75;;;23.63;;
13981;SDS011;7065;50.880;5.502;2022-12-18T04:40:44;45.95;;;24.33;;
13981;SDS011;7065;50.880;5.502;2022-12-18T04:43:11;42.35;;;23.40;;
13981;SDS011;7065;50.880;5.502;2022-12-18T04:45:36;44.90;;;25.10;;
13981;SDS011;7065;50.880;5.502;2022-12-18T04:48:02;42.72;;;24.77;;
13981;SDS011;7065;50.880;5.502;2022-12-18T04:50:29;44.08;;;24.98;;
13981;SDS011;7065;50.880;5.502;2022-12-18T04:52:56;44.63;;;24.40;;
13981;SDS011;7065;50.880;5.502;2022-12-18T04:55:22;45.50;;;24.90;;
13981;SDS011;7065;50.880;5.502;2022-12-18T04:57:47;43.05;;;24.85;;
13981;SDS011;7065;50.880;5.502;2022-12-18T05:00:13;42.55;;;22.83;;
13981;SDS011;7065;50.880;5.502;2022-12-18T05:02:39;37.22;;;22.95;;
13981;SDS011;7065;50.880;5.502;2022-12-18T05:05:06;42.65;;;24.17;;
13981;SDS011;7065;50.880;5.502;2022-12-18T05:07:32;42.03;;;23.73;;
13981;SDS011;7065;50.880;5.502;2022-12-18T05:09:58;45.03;;;24.10;;
13981;SDS011;7065;50.880;5.502;2022-12-18T05:12:23;43.88;;;24.35;;
13981;SDS011;7065;50.880;5.502;2022-12-18T05:14:49;42.33;;;24.45;;
13981;SDS011;7065;50.880;5.502;2022-12-18T05:17:15;47.22;;;24.20;;
13981;SDS011;7065;50.880;5.502;2022-12-18T05:19:40;46.13;;;25.52;;
13981;SDS011;7065;50.880;5.502;2022-12-18T05:22:07;41.42;;;23.45;;
13981;SDS011;7065;50.880;5.502;2022-12-18T05:24:33;43.75;;;23.95;;
13981;SDS011;7065;50.880;5.502;2022-12-18T05:26:59;48.45;;;25.88;;
13981;SDS011;7065;50.880;5.502;2022-12-18T05:29:25;46.58;;;26.17;;
13981;SDS011;7065;50.880;5.502;2022-12-18T05:31:51;53.38;;;27.77;;
13981;SDS011;7065;50.880;5.502;2022-12-18T05:34:16;43.35;;;26.30;;
13981;SDS011;7065;50.880;5.502;2022-12-18T05:36:42;48.33;;;25.67;;
13981;SDS011;7065;50.880;5.502;2022-12-18T05:39:08;49.13;;;25.38;;
13981;SDS011;7065;50.880;5.502;2022-12-18T05:41:33;40.30;;;23.75;;
13981;SDS011;7065;50.880;5.502;2022-12-18T05:43:59;43.00;;;24.92;;
13981;SDS011;7065;50.880;5.502;2022-12-18T05:46:25;46.38;;;26.38;;
13981;SDS011;7065;50.880;5.502;2022-12-18T05:48:51;46.47;;;26.80;;
13981;SDS011;7065;50.880;5.502;2022-12-18T05:51:18;51.40;;;26.92;;
13981;SDS011;7065;50.880;5.502;2022-12-18T05:53:46;43.67;;;25.08;;
13981;SDS011;7065;50.880;5.502;2022-12-18T05:56:21;50.70;;;25.17;;
13981;SDS011;7065;50.880;5.502;2022-12-18T05:58:50;50.85;;;26.27;;
13981;SDS011;7065;50.880;5.502;2022-12-18T06:01:19;43.92;;;25.55;;
13981;SDS011;7065;50.880;5.502;2022-12-18T06:03:47;43.75;;;24.65;;
13981;SDS011;7065;50.880;5.502;2022-12-18T06:06:17;46.40;;;25.70;;
13981;SDS011;7065;50.880;5.502;2022-12-18T06:08:44;46.58;;;25.35;;
13981;SDS011;7065;50.880;5.502;2022-12-18T06:11:11;46.97;;;27.00;;
13981;SDS011;7065;50.880;5.502;2022-12-18T06:13:38;44.92;;;24.35;;
13981;SDS011;7065;50.880;5.502;2022-12-18T06:16:04;44.40;;;25.20;;
13981;SDS011;7065;50.880;5.502;2022-12-18T06:18:30;48.28;;;27.30;;
13981;SDS011;7065;50.880;5.502;2022-12-18T06:20:57;45.90;;;24.85;;
13981;SDS011;7065;50.880;5.502;2022-12-18T06:23:23;44.55;;;24.83;;
13981;SDS011;7065;50.880;5.502;2022-12-18T06:25:50;44.45;;;24.52;;
13981;SDS011;7065;50.880;5.502;2022-12-18T06:28:15;39.47;;;24.15;;
13981;SDS011;7065;50.880;5.502;2022-12-18T06:30:45;47.80;;;24.65;;
13981;SDS011;7065;50.880;5.502;2022-12-18T06:33:11;48.75;;;25.40;;
13981;SDS011;7065;50.880;5.502;2022-12-18T06:35:37;45.05;;;25.40;;
13981;SDS011;7065;50.880;5.502;2022-12-18T06:38:02;39.15;;;23.00;;
13981;SDS011;7065;50.880;5.502;2022-12-18T06:40:28;42.95;;;23.50;;
13981;SDS011;7065;50.880;5.502;2022-12-18T06:42:54;39.08;;;22.58;;
13981;SDS011;7065;50.880;5.502;2022-12-18T06:45:19;40.47;;;23.77;;
13981;SDS011;7065;50.880;5.502;2022-12-18T06:47:45;42.33;;;24.08;;
13981;SDS011;7065;50.880;5.502;2022-12-18T06:50:11;41.05;;;23.27;;
13981;SDS011;7065;50.880;5.502;2022-12-18T06:52:38;36.72;;;21.50;;
13981;SDS011;7065;50.880;5.502;2022-12-18T06:55:05;33.28;;;20.83;;
13981;SDS011;7065;50.880;5.502;2022-12-18T06:57:31;36.13;;;19.63;;
13981;SDS011;7065;50.880;5.502;2022-12-18T06:59:57;32.80;;;19.38;;
13981;SDS011;7065;50.880;5.502;2022-12-18T07:02:23;27.58;;;18.48;;
13981;SDS011;7065;50.880;5.502;2022-12-18T07:04:49;32.15;;;18.48;;
13981;SDS011;7065;50.880;5.502;2022-12-18T07:07:15;31.80;;;17.60;;
13981;SDS011;7065;50.880;5.502;2022-12-18T07:09:40;29.15;;;17.70;;
13981;SDS011;7065;50.880;5.502;2022-12-18T07:12:06;28.45;;;17.95;;
13981;SDS011;7065;50.880;5.502;2022-12-18T07:14:33;30.13;;;18.17;;
13981;SDS011;7065;50.880;5.502;2022-12-18T07:16:58;30.65;;;18.40;;
13981;SDS011;7065;50.880;5.502;2022-12-18T07:19:24;29.70;;;18.17;;
13981;SDS011;7065;50.880;5.502;2022-12-18T07:21:51;30.13;;;18.55;;
13981;SDS011;7065;50.880;5.502;2022-12-18T07:24:16;28.83;;;17.67;;
13981;SDS011;7065;50.880;5.502;2022-12-18T07:26:42;28.48;;;17.05;;
13981;SDS011;7065;50.880;5.502;2022-12-18T07:29:11;26.63;;;18.10;;
13981;SDS011;7065;50.880;5.502;2022-12-18T07:31:36;27.20;;;17.02;;
13981;SDS011;7065;50.880;5.502;2022-12-18T07:34:02;28.88;;;16.75;;
13981;SDS011;7065;50.880;5.502;2022-12-18T07:36:28;24.02;;;15.50;;
13981;SDS011;7065;50.880;5.502;2022-12-18T07:38:53;24.50;;;14.48;;
13981;SDS011;7065;50.880;5.502;2022-12-18T07:41:19;25.63;;;15.40;;
13981;SDS011;7065;50.880;5.502;2022-12-18T07:43:46;26.30;;;15.55;;
13981;SDS011;7065;50.880;5.502;2022-12-18T07:46:12;22.15;;;14.85;;
13981;SDS011;7065;50.880;5.502;2022-12-18T07:48:39;23.92;;;15.55;;
13981;SDS011;7065;50.880;5.502;2022-12-18T07:51:06;26.23;;;15.30;;
13981;SDS011;7065;50.880;5.502;2022-12-18T07:53:33;26.80;;;17.05;;
13981;SDS011;7065;50.880;5.502;2022-12-18T07:56:00;28.65;;;17.17;;
13981;SDS011;7065;50.880;5.502;2022-12-18T07:58:29;28.55;;;16.38;;
13981;SDS011;7065;50.880;5.502;2022-12-18T08:01:01;24.48;;;15.77;;
13981;SDS011;7065;50.880;5.502;2022-12-18T08:03:37;23.95;;;14.85;;
13981;SDS011;7065;50.880;5.502;2022-12-18T08:06:05;22.20;;;14.73;;
13981;SDS011;7065;50.880;5.502;2022-12-18T08:08:32;22.95;;;14.88;;
13981;SDS011;7065;50.880;5.502;2022-12-18T08:10:58;25.02;;;15.60;;
13981;SDS011;7065;50.880;5.502;2022-12-18T08:13:24;24.20;;;15.95;;
13981;SDS011;7065;50.880;5.502;2022-12-18T08:15:58;27.38;;;16.75;;
13981;SDS011;7065;50.880;5.502;2022-12-18T08:18:28;26.95;;;17.80;;
13981;SDS011;7065;50.880;5.502;2022-12-18T08:20:54;23.40;;;16.05;;
13981;SDS011;7065;50.880;5.502;2022-12-18T08:23:20;27.17;;;17.52;;
13981;SDS011;7065;50.880;5.502;2022-12-18T08:25:46;26.38;;;18.05;;
13981;SDS011;7065;50.880;5.502;2022-12-18T08:28:12;33.00;;;20.50;;
13981;SDS011;7065;50.880;5.502;2022-12-18T08:30:38;32.65;;;21.20;;
13981;SDS011;7065;50.880;5.502;2022-12-18T08:33:04;34.13;;;22.27;;
13981;SDS011;7065;50.880;5.502;2022-12-18T08:35:30;32.78;;;21.38;;
13981;SDS011;7065;50.880;5.502;2022-12-18T08:37:59;33.03;;;21.70;;
13981;SDS011;7065;50.880;5.502;2022-12-18T08:40:25;31.33;;;21.05;;
13981;SDS011;7065;50.880;5.502;2022-12-18T08:42:50;31.17;;;20.52;;
13981;SDS011;7065;50.880;5.502;2022-12-18T08:45:34;26.85;;;18.90;;
13981;SDS011;7065;50.880;5.502;2022-12-18T08:48:00;27.52;;;18.40;;
13981;SDS011;7065;50.880;5.502;2022-12-18T08:50:26;25.23;;;16.20;;
13981;SDS011;7065;50.880;5.502;2022-12-18T08:52:51;25.83;;;16.63;;
13981;SDS011;7065;50.880;5.502;2022-12-18T08:55:17;21.25;;;14.43;;
13981;SDS011;7065;50.880;5.502;2022-12-18T08:57:43;23.83;;;14.43;;
13981;SDS011;7065;50.880;5.502;2022-12-18T09:00:12;21.92;;;15.30;;
13981;SDS011;7065;50.880;5.502;2022-12-18T09:02:38;26.85;;;15.10;;
13981;SDS011;7065;50.880;5.502;2022-12-18T09:05:05;21.48;;;15.05;;
13981;SDS011;7065;50.880;5.502;2022-12-18T09:07:31;27.25;;;16.55;;
13981;SDS011;7065;50.880;5.502;2022-12-18T09:09:56;26.35;;;13.75;;
13981;SDS011;7065;50.880;5.502;2022-12-18T09:12:22;21.35;;;12.20;;
13981;SDS011;7065;50.880;5.502;2022-12-18T09:14:47;20.50;;;12.50;;
13981;SDS011;7065;50.880;5.502;2022-12-18T09:17:13;21.73;;;12.95;;
13981;SDS011;7065;50.880;5.502;2022-12-18T09:19:39;23.35;;;12.50;;
13981;SDS011;7065;50.880;5.502;2022-12-18T09:22:05;22.73;;;13.10;;
13981;SDS011;7065;50.880;5.502;2022-12-18T09:24:31;17.08;;;11.85;;
13981;SDS011;7065;50.880;5.502;2022-12-18T09:26:56;19.75;;;12.50;;
13981;SDS011;7065;50.880;5.502;2022-12-18T09:29:22;21.52;;;13.45;;
13981;SDS011;7065;50.880;5.502;2022-12-18T09:31:49;21.20;;;12.23;;
13981;SDS011;7065;50.880;5.502;2022-12-18T09:34:15;20.95;;;13.18;;
13981;SDS011;7065;50.880;5.502;2022-12-18T09:36:41;22.42;;;13.23;;
13981;SDS011;7065;50.880;5.502;2022-12-18T09:39:07;19.52;;;12.55;;
13981;SDS011;7065;50.880;5.502;2022-12-18T09:44:12;17.48;;;10.90;;
13981;SDS011;7065;50.880;5.502;2022-12-18T09:47:35;18.80;;;11.25;;
13981;SDS011;7065;50.880;5.502;2022-12-18T09:49:42;21.55;;;12.18;;
13981;SDS011;7065;50.880;5.502;2022-12-18T09:52:16;20.13;;;12.30;;
13981;SDS011;7065;50.880;5.502;2022-12-18T09:54:53;20.45;;;13.27;;
13981;SDS011;7065;50.880;5.502;2022-12-18T09:57:44;19.40;;;13.30;;
13981;SDS011;7065;50.880;5.502;2022-12-18T10:00:24;20.90;;;13.10;;
13981;SDS011;7065;50.880;5.502;2022-12-18T10:02:58;19.88;;;12.73;;
13981;SDS011;7065;50.880;5.502;2022-12-18T10:05:40;19.13;;;12.15;;
13981;SDS011;7065;50.880;5.502;2022-12-18T10:11:01;20.45;;;12.77;;
13981;SDS011;7065;50.880;5.502;2022-12-18T10:13:38;22.75;;;14.82;;
13981;SDS011;7065;50.880;5.502;2022-12-18T10:16:24;21.58;;;13.52;;
13981;SDS011;7065;50.880;5.502;2022-12-18T10:27:30;18.80;;;13.55;;
13981;SDS011;7065;50.880;5.502;2022-12-18T10:29:56;20.63;;;13.80;;
13981;SDS011;7065;50.880;5.502;2022-12-18T10:32:24;23.20;;;14.48;;
13981;SDS011;7065;50.880;5.502;2022-12-18T10:34:53;19.50;;;13.70;;
13981;SDS011;7065;50.880;5.502;2022-12-18T10:37:21;20.80;;;14.88;;
13981;SDS011;7065;50.880;5.502;2022-12-18T10:42:43;22.83;;;13.95;;
13981;SDS011;7065;50.880;5.502;2022-12-18T10:45:13;19.83;;;13.98;;
13981;SDS011;7065;50.880;5.502;2022-12-18T10:47:44;19.75;;;13.10;;
13981;SDS011;7065;50.880;5.502;2022-12-18T10:50:28;19.25;;;13.38;;
13981;SDS011;7065;50.880;5.502;2022-12-18T10:53:00;19.98;;;13.80;;
13981;SDS011;7065;50.880;5.502;2022-12-18T10:55:31;21.10;;;13.60;;
13981;SDS011;7065;50.880;5.502;2022-12-18T11:01:01;19.88;;;14.35;;
13981;SDS011;7065;50.880;5.502;2022-12-18T11:06:07;21.48;;;14.90;;
13981;SDS011;7065;50.880;5.502;2022-12-18T11:08:34;22.33;;;14.80;;
13981;SDS011;7065;50.880;5.502;2022-12-18T11:11:00;20.88;;;14.73;;
13981;SDS011;7065;50.880;5.502;2022-12-18T11:13:27;20.50;;;14.10;;
13981;SDS011;7065;50.880;5.502;2022-12-18T11:15:55;21.25;;;14.20;;
13981;SDS011;7065;50.880;5.502;2022-12-18T11:18:26;19.83;;;13.57;;
13981;SDS011;7065;50.880;5.502;2022-12-18T11:23:25;22.23;;;15.55;;
13981;SDS011;7065;50.880;5.502;2022-12-18T11:25:53;22.02;;;14.75;;
13981;SDS011;7065;50.880;5.502;2022-12-18T11:31:26;21.20;;;15.07;;
13981;SDS011;7065;50.880;5.502;2022-12-18T11:33:46;19.25;;;14.10;;
13981;SDS011;7065;50.880;5.502;2022-12-18T11:36:20;23.00;;;15.30;;
13981;SDS011;7065;50.880;5.502;2022-12-18T11:38:47;21.65;;;15.25;;
13981;SDS011;7065;50.880;5.502;2022-12-18T11:41:41;21.20;;;13.65;;
13981;SDS011;7065;50.880;5.502;2022-12-18T11:49:56;22.17;;;14.88;;
13981;SDS011;7065;50.880;5.502;2022-12-18T11:52:30;22.02;;;14.50;;
13981;SDS011;7065;50.880;5.502;2022-12-18T12:00:26;21.90;;;15.27;;
13981;SDS011;7065;50.880;5.502;2022-12-18T12:05:39;20.58;;;13.48;;
13981;SDS011;7065;50.880;5.502;2022-12-18T12:08:15;21.27;;;14.80;;
13981;SDS011;7065;50.880;5.502;2022-12-18T12:24:52;22.50;;;14.48;;
13981;SDS011;7065;50.880;5.502;2022-12-18T12:38:44;20.50;;;15.02;;
13981;SDS011;7065;50.880;5.502;2022-12-18T12:41:17;22.63;;;16.13;;
13981;SDS011;7065;50.880;5.502;2022-12-18T12:44:06;26.23;;;15.20;;
13981;SDS011;7065;50.880;5.502;2022-12-18T12:46:39;21.27;;;15.70;;
13981;SDS011;7065;50.880;5.502;2022-12-18T12:49:11;22.70;;;15.43;;
13981;SDS011;7065;50.880;5.502;2022-12-18T12:51:44;25.23;;;17.25;;
13981;SDS011;7065;50.880;5.502;2022-12-18T12:54:19;23.67;;;16.73;;
13981;SDS011;7065;50.880;5.502;2022-12-18T12:56:51;36.53;;;18.25;;
13981;SDS011;7065;50.880;5.502;2022-12-18T13:02:15;28.23;;;16.77;;
13981;SDS011;7065;50.880;5.502;2022-12-18T13:08:00;27.10;;;17.55;;
13981;SDS011;7065;50.880;5.502;2022-12-18T13:10:37;24.63;;;17.38;;
13981;SDS011;7065;50.880;5.502;2022-12-18T13:13:07;26.20;;;17.13;;
13981;SDS011;7065;50.880;5.502;2022-12-18T13:18:17;27.40;;;17.15;;
13981;SDS011;7065;50.880;5.502;2022-12-18T13:21:01;25.42;;;16.60;;
13981;SDS011;7065;50.880;5.502;2022-12-18T13:23:36;23.40;;;16.48;;
13981;SDS011;7065;50.880;5.502;2022-12-18T13:31:14;23.77;;;16.00;;
13981;SDS011;7065;50.880;5.502;2022-12-18T13:34:02;29.23;;;17.80;;
13981;SDS011;7065;50.880;5.502;2022-12-18T13:36:40;24.88;;;16.92;;
13981;SDS011;7065;50.880;5.502;2022-12-18T13:39:30;26.90;;;17.40;;
13981;SDS011;7065;50.880;5.502;2022-12-18T13:47:26;28.38;;;20.00;;
13981;SDS011;7065;50.880;5.502;2022-12-18T13:50:00;29.35;;;17.85;;
13981;SDS011;7065;50.880;5.502;2022-12-18T13:52:34;24.60;;;17.05;;
13981;SDS011;7065;50.880;5.502;2022-12-18T13:55:04;32.47;;;18.33;;
13981;SDS011;7065;50.880;5.502;2022-12-18T13:57:34;23.35;;;17.25;;
13981;SDS011;7065;50.880;5.502;2022-12-18T14:02:48;27.63;;;18.10;;
13981;SDS011;7065;50.880;5.502;2022-12-18T14:05:21;26.75;;;18.45;;
13981;SDS011;7065;50.880;5.502;2022-12-18T14:07:48;25.35;;;17.25;;
13981;SDS011;7065;50.880;5.502;2022-12-18T14:10:15;29.13;;;18.52;;
13981;SDS011;7065;50.880;5.502;2022-12-18T14:12:45;28.38;;;19.73;;
13981;SDS011;7065;50.880;5.502;2022-12-18T14:17:50;30.88;;;20.88;;
13981;SDS011;7065;50.880;5.502;2022-12-18T14:20:18;30.08;;;20.35;;
13981;SDS011;7065;50.880;5.502;2022-12-18T14:22:48;27.27;;;20.02;;
13981;SDS011;7065;50.880;5.502;2022-12-18T14:25:19;23.90;;;18.42;;
13981;SDS011;7065;50.880;5.502;2022-12-18T14:27:51;22.02;;;16.25;;
13981;SDS011;7065;50.880;5.502;2022-12-18T14:33:05;28.27;;;19.98;;
13981;SDS011;7065;50.880;5.502;2022-12-18T14:35:36;24.40;;;17.75;;
13981;SDS011;7065;50.880;5.502;2022-12-18T14:40:43;26.10;;;18.52;;
13981;SDS011;7065;50.880;5.502;2022-12-18T14:43:12;26.15;;;18.83;;
13981;SDS011;7065;50.880;5.502;2022-12-18T14:45:39;25.70;;;18.80;;
13981;SDS011;7065;50.880;5.502;2022-12-18T14:48:17;27.50;;;18.35;;
13981;SDS011;7065;50.880;5.502;2022-12-18T14:50:43;24.58;;;18.92;;
13981;SDS011;7065;50.880;5.502;2022-12-18T14:53:20;27.02;;;18.08;;
13981;SDS011;7065;50.880;5.502;2022-12-18T14:55:52;30.40;;;21.23;;
13981;SDS011;7065;50.880;5.502;2022-12-18T14:58:18;29.83;;;20.38;;
13981;SDS011;7065;50.880;5.502;2022-12-18T15:00:44;27.58;;;19.98;;
13981;SDS011;7065;50.880;5.502;2022-12-18T15:03:10;27.48;;;19.58;;
13981;SDS011;7065;50.880;5.502;2022-12-18T15:05:39;27.20;;;19.48;;
13981;SDS011;7065;50.880;5.502;2022-12-18T15:08:24;28.20;;;19.75;;
13981;SDS011;7065;50.880;5.502;2022-12-18T15:11:00;29.90;;;20.27;;
13981;SDS011;7065;50.880;5.502;2022-12-18T15:13:26;25.15;;;18.15;;
13981;SDS011;7065;50.880;5.502;2022-12-18T15:15:53;25.55;;;17.80;;
13981;SDS011;7065;50.880;5.502;2022-12-18T15:18:25;26.50;;;19.92;;
13981;SDS011;7065;50.880;5.502;2022-12-18T15:20:57;26.88;;;20.05;;
13981;SDS011;7065;50.880;5.502;2022-12-18T15:26:10;24.73;;;18.98;;
13981;SDS011;7065;50.880;5.502;2022-12-18T15:28:39;27.27;;;20.55;;
13981;SDS011;7065;50.880;5.502;2022-12-18T15:33:39;35.20;;;23.65;;
13981;SDS011;7065;50.880;5.502;2022-12-18T15:36:10;53.33;;;29.25;;
13981;SDS011;7065;50.880;5.502;2022-12-18T15:38:38;61.35;;;32.80;;
13981;SDS011;7065;50.880;5.502;2022-12-18T15:41:04;57.42;;;30.70;;
13981;SDS011;7065;50.880;5.502;2022-12-18T15:43:31;68.75;;;33.90;;
13981;SDS011;7065;50.880;5.502;2022-12-18T15:46:04;91.55;;;39.58;;
13981;SDS011;7065;50.880;5.502;2022-12-18T15:48:32;72.97;;;33.88;;
13981;SDS011;7065;50.880;5.502;2022-12-18T15:50:59;68.85;;;32.45;;
13981;SDS011;7065;50.880;5.502;2022-12-18T15:53:27;51.78;;;28.17;;
13981;SDS011;7065;50.880;5.502;2022-12-18T15:55:56;50.78;;;27.25;;
13981;SDS011;7065;50.880;5.502;2022-12-18T15:58:41;64.97;;;34.55;;
13981;SDS011;7065;50.880;5.502;2022-12-18T16:01:07;39.45;;;24.45;;
13981;SDS011;7065;50.880;5.502;2022-12-18T16:03:35;55.83;;;29.88;;
13981;SDS011;7065;50.880;5.502;2022-12-18T16:06:01;49.67;;;28.83;;
13981;SDS011;7065;50.880;5.502;2022-12-18T16:08:28;46.95;;;29.70;;
13981;SDS011;7065;50.880;5.502;2022-12-18T16:10:55;33.70;;;24.15;;
13981;SDS011;7065;50.880;5.502;2022-12-18T16:13:21;34.05;;;24.23;;
13981;SDS011;7065;50.880;5.502;2022-12-18T16:15:47;36.47;;;27.25;;
13981;SDS011;7065;50.880;5.502;2022-12-18T16:18:13;37.53;;;26.25;;
13981;SDS011;7065;50.880;5.502;2022-12-18T16:20:39;36.85;;;26.55;;
13981;SDS011;7065;50.880;5.502;2022-12-18T16:23:05;35.92;;;26.98;;
13981;SDS011;7065;50.880;5.502;2022-12-18T16:25:32;32.10;;;23.45;;
13981;SDS011;7065;50.880;5.502;2022-12-18T16:27:58;33.25;;;23.05;;
13981;SDS011;7065;50.880;5.502;2022-12-18T16:30:25;30.98;;;23.83;;
13981;SDS011;7065;50.880;5.502;2022-12-18T16:32:55;38.00;;;25.65;;
13981;SDS011;7065;50.880;5.502;2022-12-18T16:35:24;34.50;;;24.38;;
13981;SDS011;7065;50.880;5.502;2022-12-18T16:37:50;35.28;;;24.45;;
13981;SDS011;7065;50.880;5.502;2022-12-18T16:40:16;31.38;;;22.90;;
13981;SDS011;7065;50.880;5.502;2022-12-18T16:42:44;32.38;;;23.08;;
13981;SDS011;7065;50.880;5.502;2022-12-18T16:45:11;29.48;;;22.00;;
13981;SDS011;7065;50.880;5.502;2022-12-18T16:47:38;29.70;;;22.60;;
13981;SDS011;7065;50.880;5.502;2022-12-18T16:50:05;31.80;;;22.65;;
13981;SDS011;7065;50.880;5.502;2022-12-18T16:52:31;30.58;;;21.75;;
13981;SDS011;7065;50.880;5.502;2022-12-18T16:54:57;31.05;;;22.58;;
13981;SDS011;7065;50.880;5.502;2022-12-18T16:57:23;37.38;;;27.20;;
13981;SDS011;7065;50.880;5.502;2022-12-18T16:59:48;29.45;;;20.98;;
13981;SDS011;7065;50.880;5.502;2022-12-18T17:02:21;29.20;;;20.27;;
13981;SDS011;7065;50.880;5.502;2022-12-18T17:04:49;27.60;;;19.55;;